Time;durP1;ratioP1;P1;durP2;ratioP2;P2;SDS_P1;SDS_P2;PMS_P1;PMS_P2;Temp;Humidity;BMP_temperature;BMP_pressure;BME280_temperature;BME280_humidity;BME280_pressure;Samples;Min_cycle;Max_cycle;Signal;HPM_P1;HPM_P2
2023/05/07 08:06:16;;;;;;;19.33;17.23;;;;;;;15.57;100.00;101438.06;5069313;28;20382;-69
2023/05/07 08:08:41;;;;;;;18.20;16.40;;;;;;;15.60;100.00;101437.59;5069527;28;20368;-69
2023/05/07 08:11:06;;;;;;;21.13;16.85;;;;;;;15.68;100.00;101436.38;5067260;28;20345;-69
2023/05/07 08:13:32;;;;;;;18.70;16.67;;;;;;;15.73;100.00;101437.28;5069494;28;20086;-69
2023/05/07 08:15:57;;;;;;;18.13;16.20;;;;;;;15.82;100.00;101445.09;5069525;28;20048;-69
2023/05/07 08:18:24;;;;;;;17.17;15.45;;;;;;;15.92;100.00;101445.28;5069832;28;20025;-69
2023/05/07 08:20:50;;;;;;;18.02;16.15;;;;;;;15.95;100.00;101450.25;5068396;28;20099;-69
2023/05/07 08:23:15;;;;;;;17.23;15.43;;;;;;;16.06;100.00;101446.63;5069417;28;20104;-69
2023/05/07 08:25:42;;;;;;;18.15;16.23;;;;;;;16.11;100.00;101452.16;5069503;28;20025;-69
2023/05/07 08:28:07;;;;;;;17.88;15.75;;;;;;;16.13;100.00;101446.47;5069414;28;20030;-69
2023/05/07 08:30:33;;;;;;;17.08;15.25;;;;;;;16.21;100.00;101446.03;5067682;28;20016;-69
2023/05/07 08:32:58;;;;;;;18.08;15.48;;;;;;;16.29;100.00;101453.00;5069229;28;20115;-69
2023/05/07 08:35:25;;;;;;;17.00;15.23;;;;;;;16.34;100.00;101453.06;5069187;28;20102;-69
2023/05/07 08:37:53;;;;;;;19.17;15.77;;;;;;;16.39;100.00;101455.88;5069437;28;20078;-69
2023/05/07 08:40:18;;;;;;;15.95;14.35;;;;;;;16.44;100.00;101458.72;5068195;28;20025;-69
2023/05/07 08:42:44;;;;;;;18.90;15.82;;;;;;;16.46;100.00;101451.09;5068954;28;20503;-69
2023/05/07 08:45:11;;;;;;;16.67;14.85;;;;;;;16.51;100.00;101458.53;5067398;28;20515;-69
2023/05/07 08:47:45;;;;;;;17.65;15.18;;;;;;;16.55;100.00;101461.59;5068953;28;20021;-69
2023/05/07 08:50:11;;;;;;;22.42;15.27;;;;;;;16.61;100.00;101460.59;5066961;28;20471;-69
2023/05/07 08:52:37;;;;;;;18.02;14.88;;;;;;;16.64;100.00;101458.19;5061971;28;20354;-70
2023/05/07 08:55:03;;;;;;;17.13;15.38;;;;;;;16.70;100.00;101458.25;5048784;28;20037;-71
2023/05/07 08:57:28;;;;;;;19.08;15.50;;;;;;;16.75;100.00;101459.16;5063997;28;20029;-71
2023/05/07 08:59:54;;;;;;;16.40;14.80;;;;;;;16.80;100.00;101466.59;5048829;28;20025;-71
2023/05/07 09:02:20;;;;;;;18.70;16.70;;;;;;;16.82;100.00;101464.44;5065255;28;20359;-75
2023/05/07 09:04:45;;;;;;;17.85;15.90;;;;;;;16.86;100.00;101464.75;5066015;28;20044;-72
2023/05/07 09:07:10;;;;;;;17.48;14.80;;;;;;;16.91;100.00;101467.59;5054879;28;20035;-71
2023/05/07 09:09:39;;;;;;;18.02;16.10;;;;;;;16.95;100.00;101463.28;5067493;28;20016;-76
2023/05/07 09:12:05;;;;;;;16.73;14.90;;;;;;;17.00;100.00;101464.19;5058985;28;20021;-71
2023/05/07 09:14:30;;;;;;;17.92;15.73;;;;;;;17.07;100.00;101468.63;5064030;28;20025;-70
2023/05/07 09:16:56;;;;;;;17.35;15.32;;;;;;;17.08;100.00;101471.13;5043878;28;20427;-70
2023/05/07 09:19:26;;;;;;;19.30;15.48;;;;;;;17.07;100.00;101468.63;5042974;28;20377;-70
2023/05/07 09:22:02;;;;;;;19.17;16.70;;;;;;;17.13;100.00;101465.69;5052555;28;20108;-69
2023/05/07 09:24:30;;;;;;;17.67;15.85;;;;;;;17.17;100.00;101471.50;5053777;28;20471;-70
2023/05/07 09:26:58;;;;;;;19.38;16.33;;;;;;;17.23;100.00;101469.66;5036939;28;20071;-71
2023/05/07 09:29:23;;;;;;;18.63;15.90;;;;;;;17.26;100.00;101474.63;5048893;28;20028;-71
2023/05/07 09:31:48;;;;;;;18.95;16.73;;;;;;;17.30;100.00;101475.75;5040802;28;20099;-71
2023/05/07 09:34:14;;;;;;;19.20;17.27;;;;;;;17.25;100.00;101467.50;5041909;28;20104;-71
2023/05/07 09:36:39;;;;;;;18.63;16.73;;;;;;;17.31;100.00;101472.75;5055229;28;20091;-69
2023/05/07 09:39:05;;;;;;;20.10;16.15;;;;;;;17.36;100.00;101470.09;5052133;28;20075;-70
2023/05/07 09:41:33;;;;;;;20.27;16.75;;;;;;;17.35;100.00;101473.91;5054924;28;20029;-70
2023/05/07 09:44:00;;;;;;;18.30;16.10;;;;;;;17.41;100.00;101474.81;5055746;28;20529;-70
2023/05/07 09:46:29;;;;;;;20.08;17.48;;;;;;;17.44;100.00;101468.81;5047333;28;20025;-70
2023/05/07 09:48:58;;;;;;;19.00;17.10;;;;;;;17.49;100.00;101474.34;5053618;28;20033;-70
2023/05/07 09:51:33;;;;;;;19.10;17.10;;;;;;;17.54;100.00;101473.56;5040585;28;20029;-70
2023/05/07 09:54:03;;;;;;;18.75;16.73;;;;;;;17.61;100.00;101476.13;5048793;28;20453;-70
2023/05/07 09:56:30;;;;;;;17.30;15.60;;;;;;;17.59;100.00;101470.91;5053918;28;20048;-71
2023/05/07 09:58:57;;;;;;;16.55;14.85;;;;;;;17.65;100.00;101474.53;5054656;28;20029;-71
2023/05/07 10:01:25;;;;;;;17.20;15.50;;;;;;;17.68;100.00;101479.50;5052187;28;20021;-70
2023/05/07 10:03:54;;;;;;;17.10;15.40;;;;;;;17.67;100.00;101477.81;5040128;28;20133;-71
2023/05/07 10:06:20;;;;;;;17.35;15.65;;;;;;;17.69;100.00;101475.66;5033616;28;20017;-71
2023/05/07 10:08:46;;;;;;;19.48;15.23;;;;;;;17.70;100.00;101480.03;5050868;28;20033;-71
2023/05/07 10:11:12;;;;;;;20.88;14.85;;;;;;;17.71;100.00;101477.06;5036446;28;20108;-71
2023/05/07 10:13:37;;;;;;;16.58;14.88;;;;;;;17.74;100.00;101475.72;5034298;28;20572;-71
2023/05/07 10:16:04;;;;;;;17.48;15.40;;;;;;;17.77;100.00;101477.94;5033905;28;20026;-71
2023/05/07 10:18:33;;;;;;;16.83;13.52;;;;;;;17.82;100.00;101479.91;5034466;28;20069;-72
2023/05/07 10:21:08;;;;;;;16.23;14.48;;;;;;;17.86;100.00;101479.13;5034058;28;20041;-73
2023/05/07 10:23:34;;;;;;;17.58;14.60;;;;;;;17.96;100.00;101481.16;5049350;28;20081;-73
2023/05/07 10:26:03;;;;;;;16.52;14.88;;;;;;;18.02;100.00;101482.03;5053855;28;20025;-72
2023/05/07 10:28:32;;;;;;;15.63;13.98;;;;;;;18.14;100.00;101477.22;5053126;28;20161;-73
2023/05/07 10:31:00;;;;;;;16.30;13.98;;;;;;;18.19;100.00;101473.69;5036437;28;20155;-73
2023/05/07 10:33:28;;;;;;;15.98;13.88;;;;;;;18.28;100.00;101480.31;5040719;28;20026;-71
2023/05/07 10:36:00;;;;;;;15.00;12.95;;;;;;;18.31;100.00;101484.47;5060243;28;20041;-71
2023/05/07 10:38:27;;;;;;;15.20;13.43;;;;;;;18.36;100.00;101479.06;5042554;28;20029;-72
2023/05/07 10:40:52;;;;;;;17.90;14.23;;;;;;;18.47;100.00;101475.28;5035459;28;20033;-73
2023/05/07 10:43:18;;;;;;;15.77;12.80;;;;;;;18.52;100.00;101480.78;5035889;28;20472;-73
2023/05/07 10:46:10;;;;;;;14.85;13.30;;;;;;;18.55;100.00;101480.25;5045963;28;20472;-78
2023/05/07 10:49:06;;;;;;;15.30;13.35;;;;;;;18.62;100.00;101480.06;5034218;28;20491;-73
2023/05/07 10:51:32;;;;;;;15.80;12.50;;;;;;;18.61;100.00;101489.34;5053244;28;20021;-73
2023/05/07 10:54:10;;;;;;;17.17;12.07;;;;;;;18.73;100.00;101487.22;5048908;28;20162;-72
2023/05/07 10:56:39;;;;;;;14.23;11.98;;;;;;;18.76;100.00;101491.38;5033543;28;20033;-73
2023/05/07 10:59:19;;;;;;;16.90;11.77;;;;;;;18.80;100.00;101487.03;5039845;28;20071;-72
2023/05/07 11:01:59;;;;;;;14.93;11.60;;;;;;;18.83;100.00;101488.41;5031169;28;20093;-71
2023/05/07 11:04:29;;;;;;;13.27;10.93;;;;;;;18.86;100.00;101493.41;5032508;28;20049;-72
2023/05/07 11:07:06;;;;;;;12.52;10.45;;;;;;;18.90;100.00;101489.00;5032916;28;20094;-72
2023/05/07 11:09:51;;;;;;;11.32;9.85;;;;;;;18.92;100.00;101493.16;5042658;28;20029;-72
2023/05/07 11:12:17;;;;;;;13.20;10.80;;;;;;;18.91;100.00;101491.50;5053002;28;20353;-71
2023/05/07 11:14:44;;;;;;;12.50;10.18;;;;;;;18.99;100.00;101492.09;5044667;28;20103;-71
2023/05/07 11:17:11;;;;;;;14.15;11.68;;;;;;;18.96;100.00;101485.22;5052480;28;20037;-72
2023/05/07 11:19:49;;;;;;;14.23;10.90;;;;;;;19.02;100.00;101488.81;5052694;28;20376;-72
2023/05/07 11:22:44;;;;;;;12.48;11.15;;;;;;;19.02;100.00;101492.41;5052761;28;20025;-72
2023/05/07 11:25:09;;;;;;;13.43;10.35;;;;;;;18.98;100.00;101488.53;5044967;28;20048;-71
2023/05/07 11:27:35;;;;;;;13.25;9.60;;;;;;;19.04;100.00;101486.66;5041126;28;20029;-71
2023/05/07 11:30:01;;;;;;;12.93;9.70;;;;;;;19.06;100.00;101498.16;5033016;28;20075;-72
2023/05/07 11:32:31;;;;;;;11.75;9.57;;;;;;;19.17;100.00;101491.63;5031936;28;20026;-72
2023/05/07 11:34:58;;;;;;;10.60;8.80;;;;;;;19.27;100.00;101486.19;5031652;28;20052;-72
2023/05/07 11:37:24;;;;;;;11.80;10.25;;;;;;;19.34;100.00;101490.59;5032981;28;20138;-71
2023/05/07 11:39:55;;;;;;;12.52;10.63;;;;;;;19.32;100.00;101490.06;5032951;28;20136;-71
2023/05/07 11:42:38;;;;;;;15.73;10.13;;;;;;;19.30;100.00;101485.66;5030091;28;20111;-72
2023/05/07 11:45:05;;;;;;;11.65;10.43;;;;;;;19.30;100.00;101488.38;5045257;28;20437;-71
2023/05/07 11:47:31;;;;;;;12.05;9.93;;;;;;;19.35;100.00;101492.25;5052842;28;20024;-72
2023/05/07 11:49:56;;;;;;;11.35;9.50;;;;;;;19.37;100.00;101490.06;5052661;28;20025;-71
2023/05/07 11:52:23;;;;;;;12.20;9.02;;;;;;;19.33;100.00;101486.22;5051444;28;20045;-72
2023/05/07 11:54:49;;;;;;;11.15;9.15;;;;;;;19.35;100.00;101489.50;5032307;28;20132;-72
2023/05/07 11:57:15;;;;;;;11.80;8.48;;;;;;;19.35;100.00;101484.84;5031472;28;20372;-71
2023/05/07 11:59:40;;;;;;;11.07;8.02;;;;;;;19.35;100.00;101481.28;5032397;28;20029;-71
2023/05/07 12:02:07;;;;;;;12.65;8.35;;;;;;;19.37;100.00;101490.91;5029989;28;20365;-71
2023/05/07 12:04:33;;;;;;;10.80;8.05;;;;;;;19.37;100.00;101490.06;5046486;28;20049;-72
2023/05/07 12:06:58;;;;;;;10.23;8.52;;;;;;;19.41;100.00;101485.69;5052493;28;20039;-72
2023/05/07 12:09:23;;;;;;;13.18;8.48;;;;;;;19.34;100.00;101490.59;5051964;28;20061;-71
2023/05/07 12:11:49;;;;;;;8.48;7.65;;;;;;;19.34;100.00;101479.63;5050828;28;20086;-71
2023/05/07 12:14:15;;;;;;;10.23;8.98;;;;;;;19.31;100.00;101481.00;5034377;28;20029;-71
2023/05/07 12:16:41;;;;;;;10.07;8.40;;;;;;;19.26;100.00;101481.81;5030854;28;20029;-72
2023/05/07 12:19:08;;;;;;;12.13;9.70;;;;;;;19.20;100.00;101485.59;5032260;28;20022;-72
2023/05/07 12:21:35;;;;;;;11.70;9.15;;;;;;;19.18;100.00;101487.78;5030874;28;20027;-71
2023/05/07 12:24:01;;;;;;;13.32;9.70;;;;;;;19.12;100.00;101494.34;5037511;28;20009;-71
2023/05/07 12:26:26;;;;;;;12.05;9.52;;;;;;;19.04;100.00;101503.09;5052129;28;20036;-71
2023/05/07 12:28:51;;;;;;;11.48;8.55;;;;;;;18.97;100.00;101506.06;5045405;28;20009;-71
2023/05/07 12:31:17;;;;;;;10.85;8.70;;;;;;;18.94;100.00;101506.59;5052033;28;20033;-71
2023/05/07 12:33:42;;;;;;;12.15;8.52;;;;;;;18.84;100.00;101522.94;5045573;28;20407;-71
2023/05/07 12:36:08;;;;;;;8.98;5.30;;;;;;;18.64;100.00;101523.66;5038522;28;20025;-72
2023/05/07 12:38:39;;;;;;;6.53;4.38;;;;;;;18.27;100.00;101532.66;5038746;28;20079;-71
2023/05/07 12:41:06;;;;;;;;;;;;;;;18.33;100.00;101531.63;5032722;28;20032;-71
2023/05/07 12:43:32;;;;;;;6.28;3.03;;;;;;;17.80;100.00;101531.31;5034350;28;20361;-71
2023/05/07 12:46:01;;;;;;;12.45;6.57;;;;;;;17.52;100.00;101535.94;5050459;28;20056;-71
2023/05/07 12:48:27;;;;;;;14.40;6.60;;;;;;;17.25;100.00;101544.06;5033845;28;20453;-71
2023/05/07 12:50:57;;;;;;;30.67;11.45;;;;;;;16.93;100.00;101542.00;5032274;28;20082;-70
2023/05/07 12:53:25;;;;;;;21.58;10.85;;;;;;;16.62;100.00;101541.47;5036008;28;20453;-71
2023/05/07 12:55:52;;;;;;;17.23;10.43;;;;;;;16.37;100.00;101548.19;5055553;28;20068;-71
2023/05/07 12:58:32;;;;;;;17.40;10.32;;;;;;;16.18;100.00;101550.28;5054277;28;20115;-71
2023/05/07 13:01:00;;;;;;;19.58;12.35;;;;;;;16.11;100.00;101564.09;5035576;28;20025;-71
2023/05/07 13:03:30;;;;;;;15.15;11.05;;;;;;;16.09;100.00;101569.00;5035618;28;20112;-71
2023/05/07 13:05:58;;;;;;;18.02;9.55;;;;;;;16.08;100.00;101575.53;5053236;28;20041;-71
2023/05/07 13:08:32;;;;;;;13.32;10.90;;;;;;;16.09;100.00;101582.66;5055282;28;20040;-71
2023/05/07 13:11:01;;;;;;;14.88;11.05;;;;;;;16.15;100.00;101589.00;5055579;28;20028;-71
2023/05/07 13:13:26;;;;;;;11.48;9.40;;;;;;;16.14;100.00;101595.56;5053781;28;20364;-71
2023/05/07 13:15:51;;;;;;;13.15;8.50;;;;;;;16.18;100.00;101590.44;5043618;28;20025;-71
2023/05/07 13:18:17;;;;;;;8.60;6.43;;;;;;;16.16;100.00;101592.59;5054204;28;20037;-71
2023/05/07 13:20:45;;;;;;;9.95;6.75;;;;;;;16.09;100.00;101596.31;5055459;28;20017;-71
2023/05/07 13:23:11;;;;;;;10.13;6.80;;;;;;;16.01;100.00;101599.41;5053845;28;20020;-71
2023/05/07 13:25:36;;;;;;;8.50;6.97;;;;;;;15.97;100.00;101594.66;5034212;28;20029;-71
2023/05/07 13:28:02;;;;;;;10.02;6.95;;;;;;;15.90;100.00;101586.63;5035106;28;20033;-72
2023/05/07 13:30:28;;;;;;;13.15;6.65;;;;;;;15.88;100.00;101588.75;5034546;28;20116;-72
2023/05/07 13:32:55;;;;;;;10.95;5.90;;;;;;;15.87;100.00;101589.84;5051667;28;20105;-71
2023/05/07 13:35:21;;;;;;;8.68;5.93;;;;;;;15.88;100.00;101583.31;5054656;28;20025;-71
2023/05/07 13:37:48;;;;;;;9.60;6.55;;;;;;;15.89;100.00;101588.53;5055052;28;20028;-71
2023/05/07 13:40:13;;;;;;;7.75;5.00;;;;;;;15.84;100.00;101590.34;5053451;28;20049;-71
2023/05/07 13:42:38;;;;;;;7.20;5.30;;;;;;;15.80;100.00;101584.53;5052592;28;20121;-71
2023/05/07 13:45:05;;;;;;;6.65;4.72;;;;;;;15.81;100.00;101588.91;5047681;28;20067;-71
2023/05/07 13:47:30;;;;;;;7.90;5.68;;;;;;;15.84;100.00;101584.88;5037870;28;20037;-72
2023/05/07 13:49:55;;;;;;;11.32;6.28;;;;;;;15.97;100.00;101578.28;5033328;28;20026;-72
2023/05/07 13:52:21;;;;;;;7.00;5.82;;;;;;;16.02;100.00;101578.38;5050579;28;20021;-72
2023/05/07 13:54:46;;;;;;;8.07;6.03;;;;;;;16.18;100.00;101579.50;5055057;28;20025;-72
2023/05/07 13:57:11;;;;;;;10.52;6.40;;;;;;;16.23;100.00;101577.72;5054438;28;20025;-71
2023/05/07 13:59:37;;;;;;;9.73;7.38;;;;;;;16.31;100.00;101581.94;5054494;28;20032;-72
2023/05/07 14:02:02;;;;;;;11.23;8.98;;;;;;;16.37;100.00;101582.88;5036268;28;20029;-72
2023/05/07 14:04:27;;;;;;;10.55;9.45;;;;;;;16.46;100.00;101581.38;5051714;28;20129;-72
2023/05/07 14:06:53;;;;;;;10.48;9.43;;;;;;;16.48;100.00;101590.16;5054265;28;20452;-72
2023/05/07 14:09:18;;;;;;;13.07;9.77;;;;;;;16.57;100.00;101582.38;5052704;28;20452;-71
2023/05/07 14:11:44;;;;;;;11.50;9.75;;;;;;;16.58;100.00;101582.13;5040113;28;20377;-72
2023/05/07 14:14:12;;;;;;;14.60;10.18;;;;;;;16.65;100.00;101581.97;5034476;28;20032;-72
2023/05/07 14:16:37;;;;;;;12.07;9.90;;;;;;;16.67;100.00;101582.56;5040102;28;20029;-72
2023/05/07 14:19:03;;;;;;;16.90;9.55;;;;;;;16.68;100.00;101583.38;5043541;28;20112;-72
2023/05/07 14:21:28;;;;;;;13.07;10.00;;;;;;;16.71;100.00;101578.22;5033493;28;20044;-71
2023/05/07 14:23:53;;;;;;;9.88;8.90;;;;;;;16.71;100.00;101575.50;5034060;28;20049;-72
2023/05/07 14:26:20;;;;;;;11.60;10.38;;;;;;;16.72;100.00;101587.28;5033681;28;20116;-72
2023/05/07 14:28:46;;;;;;;12.13;10.77;;;;;;;16.71;100.00;101580.16;5037446;28;20032;-72
2023/05/07 14:31:12;;;;;;;14.23;10.68;;;;;;;16.79;100.00;101579.75;5046558;28;20025;-71
2023/05/07 14:33:37;;;;;;;9.70;8.75;;;;;;;16.71;100.00;101589.16;5052571;28;20033;-72
2023/05/07 14:36:03;;;;;;;11.77;8.68;;;;;;;16.76;100.00;101592.00;5054053;28;20356;-72
2023/05/07 14:38:28;;;;;;;8.85;7.93;;;;;;;16.67;100.00;101598.97;5044064;28;20084;-72
2023/05/07 14:40:55;;;;;;;9.57;8.20;;;;;;;16.64;100.00;101596.72;5033944;28;20075;-72
2023/05/07 14:43:21;;;;;;;12.50;11.00;;;;;;;16.60;100.00;101598.28;5033345;28;20044;-72
2023/05/07 14:45:46;;;;;;;18.48;13.07;;;;;;;16.63;100.00;101603.25;5032586;28;20026;-72
2023/05/07 14:48:14;;;;;;;17.45;13.55;;;;;;;16.61;100.00;101603.50;5032066;28;20036;-72
2023/05/07 14:50:43;;;;;;;12.85;11.38;;;;;;;16.63;100.00;101600.53;5052382;28;20180;-72
2023/05/07 14:53:08;;;;;;;14.60;11.27;;;;;;;16.64;100.00;101604.91;5052330;28;20021;-71
2023/05/07 14:55:34;;;;;;;15.90;11.20;;;;;;;16.64;100.00;101607.66;5052023;28;20094;-72
2023/05/07 14:57:59;;;;;;;13.75;11.18;;;;;;;16.63;100.00;101608.72;5052400;28;20060;-71
2023/05/07 15:00:25;;;;;;;18.15;11.60;;;;;;;16.60;100.00;101611.94;5050331;28;20032;-72
2023/05/07 15:02:50;;;;;;;11.88;10.57;;;;;;;16.61;100.00;101608.16;5033976;28;20048;-71
2023/05/07 15:05:17;;;;;;;13.38;11.73;;;;;;;16.67;100.00;101604.41;5031745;28;20034;-72
2023/05/07 15:07:42;;;;;;;15.07;11.30;;;;;;;16.62;100.00;101610.63;5031776;28;20116;-71
2023/05/07 15:10:08;;;;;;;13.35;11.98;;;;;;;16.65;100.00;101612.03;5053402;28;20501;-71
2023/05/07 15:12:33;;;;;;;13.73;11.98;;;;;;;16.66;100.00;101614.50;5052999;28;20452;-72
2023/05/07 15:15:01;;;;;;;13.77;11.52;;;;;;;16.67;100.00;101620.81;5052440;28;20036;-72
2023/05/07 15:17:27;;;;;;;17.73;13.10;;;;;;;16.63;100.00;101625.94;5034975;28;20084;-72
2023/05/07 15:19:52;;;;;;;16.65;13.43;;;;;;;16.68;100.00;101627.91;5032253;28;20021;-71
2023/05/07 15:22:17;;;;;;;18.70;13.52;;;;;;;16.76;100.00;101624.78;5033156;28;20034;-71
2023/05/07 15:24:43;;;;;;;19.52;15.48;;;;;;;16.81;100.00;101615.84;5033367;28;20450;-71
2023/05/07 15:27:09;;;;;;;17.58;15.30;;;;;;;16.89;100.00;101617.38;5032934;28;20029;-72
2023/05/07 15:29:34;;;;;;;17.13;14.25;;;;;;;16.94;100.00;101620.19;5047389;28;20032;-71
2023/05/07 15:31:59;;;;;;;17.90;14.60;;;;;;;16.98;100.00;101610.41;5039199;28;20432;-72
2023/05/07 15:34:25;;;;;;;20.13;17.60;;;;;;;17.02;100.00;101614.31;5032782;28;20055;-71
2023/05/07 15:36:50;;;;;;;18.02;16.08;;;;;;;17.05;100.00;101615.72;5032947;28;20037;-71
2023/05/07 15:39:15;;;;;;;20.20;15.75;;;;;;;17.12;100.00;101609.00;5031180;28;20377;-71
2023/05/07 15:41:41;;;;;;;14.23;12.73;;;;;;;17.23;100.00;101609.16;5031454;28;20021;-71
2023/05/07 15:44:06;;;;;;;14.10;12.77;;;;;;;17.32;100.00;101605.72;5032835;28;20135;-71
2023/05/07 15:46:31;;;;;;;14.27;12.20;;;;;;;17.38;100.00;101600.31;5030814;28;20079;-72
2023/05/07 15:48:57;;;;;;;14.52;12.32;;;;;;;17.48;100.00;101597.72;5041546;28;20057;-71
2023/05/07 15:51:22;;;;;;;16.45;12.85;;;;;;;17.50;100.00;101599.13;5052709;28;20052;-72
2023/05/07 15:53:49;;;;;;;12.05;10.82;;;;;;;17.46;100.00;101600.72;5051356;28;20025;-71
2023/05/07 15:56:14;;;;;;;12.60;10.35;;;;;;;17.45;100.00;101598.22;5052605;28;20029;-72
2023/05/07 15:58:39;;;;;;;11.82;9.77;;;;;;;17.43;100.00;101590.28;5048704;28;20055;-71
2023/05/07 16:01:04;;;;;;;11.77;10.45;;;;;;;17.49;100.00;101583.78;5049457;28;20040;-72
